Wetterdaten: Woche 06.09.04 - 12.09.04 (KW37)
Datum Zeit Temperatur Luftfeuchte Luftdruck Niederschlag Taupunkt Windchill Wind
06.09.2004 00:00 14,6 C 74 % 1025 hPa 0,0 l/m 10,0 C 14,3 C 5,9 km/h (2 Bft)
06.09.2004 01:00 14,0 C 75 % 1025 hPa 0,0 l/m 9,7 C 12,7 C 9,4 km/h (2 Bft)
06.09.2004 02:00 13,7 C 76 % 1024 hPa 0,0 l/m 9,5 C 12,0 C 10,3 km/h (2 Bft)
06.09.2004 03:00 13,1 C 78 % 1024 hPa 0,0 l/m 9,3 C 12,5 C 7,9 km/h (2 Bft)
06.09.2004 04:00 12,9 C 80 % 1024 hPa 0,0 l/m 9,4 C 11,6 C 9,4 km/h (2 Bft)
06.09.2004 05:00 11,8 C 84 % 1024 hPa 0,0 l/m 9,2 C 10,1 C 10,0 km/h (2 Bft)
06.09.2004 06:00 11,2 C 88 % 1024 hPa 0,0 l/m 9,3 C 10,3 C 6,5 km/h (2 Bft)
06.09.2004 07:00 11,1 C 93 % 1024 hPa 0,0 l/m 10,0 C 9,8 C 7,5 km/h (2 Bft)
06.09.2004 08:00 12,6 C 91 % 1024 hPa 0,0 l/m 11,1 C 10,9 C 9,9 km/h (2 Bft)
06.09.2004 09:00 15,1 C 79 % 1024 hPa 0,0 l/m 11,4 C 13,1 C 12,0 km/h (2 Bft)
06.09.2004 10:00 18,3 C 65 % 1024 hPa 0,0 l/m 11,6 C 16,8 C 10,8 km/h (2 Bft)
06.09.2004 11:00 20,5 C 56 % 1024 hPa 0,0 l/m 11,4 C 19,2 C 11,0 km/h (2 Bft)
06.09.2004 12:00 21,7 C 52 % 1024 hPa 0,0 l/m 11,4 C 20,8 C 10,6 km/h (2 Bft)
06.09.2004 13:00 23,4 C 47 % 1024 hPa 0,0 l/m 11,3 C 22,7 C 9,9 km/h (2 Bft)
06.09.2004 14:00 25,1 C 41 % 1024 hPa 0,0 l/m 10,9 C 24,0 C 12,3 km/h (3 Bft)
06.09.2004 15:00 25,7 C 39 % 1023 hPa 0,0 l/m 10,5 C 25,0 C 10,8 km/h (2 Bft)
06.09.2004 16:00 24,8 C 40 % 1023 hPa 0,0 l/m 10,2 C 24,1 C 9,5 km/h (2 Bft)
06.09.2004 17:00 24,5 C 42 % 1023 hPa 0,0 l/m 10,7 C 23,7 C 10,7 km/h (2 Bft)
06.09.2004 18:00 24,4 C 43 % 1023 hPa 0,0 l/m 11,1 C 23,8 C 10,2 km/h (2 Bft)
06.09.2004 19:00 21,9 C 55 % 1023 hPa 0,0 l/m 12,4 C 21,7 C 7,0 km/h (2 Bft)
06.09.2004 20:00 19,4 C 67 % 1023 hPa 0,0 l/m 13,0 C 19,3 C 4,1 km/h (1 Bft)
06.09.2004 21:00 17,9 C 72 % 1024 hPa 0,0 l/m 12,8 C 17,7 C 5,0 km/h (1 Bft)
06.09.2004 22:00 17,2 C 75 % 1024 hPa 0,0 l/m 12,7 C 16,9 C 5,9 km/h (2 Bft)
06.09.2004 23:00 16,3 C 78 % 1024 hPa 0,0 l/m 12,4 C 16,0 C 5,4 km/h (1 Bft)
07.09.2004 00:00 15,9 C 80 % 1024 hPa 0,0 l/m 12,4 C 15,5 C 6,6 km/h (2 Bft)
07.09.2004 19:00 20,7 C 52 % 1026 hPa 0,0 l/m 10,6 C 20,6 C 6,5 km/h (2 Bft)
07.09.2004 20:00 19,4 C 56 % 1026 hPa 0,0 l/m 10,4 C 18,8 C 7,3 km/h (2 Bft)
07.09.2004 21:00 18,0 C 60 % 1027 hPa 0,0 l/m 10,1 C 17,6 C 7,0 km/h (2 Bft)
07.09.2004 22:00 16,5 C 66 % 1027 hPa 0,0 l/m 10,0 C 16,5 C 0,9 km/h (0 Bft)
07.09.2004 23:00 15,3 C 71 % 1027 hPa 0,0 l/m 10,1 C 14,9 C 6,3 km/h (2 Bft)
08.09.2004 00:00 14,4 C 75 % 1027 hPa 0,0 l/m 10,0 C 14,2 C 4,0 km/h (1 Bft)
08.09.2004 01:00 13,5 C 80 % 1027 hPa 0,0 l/m 10,0 C 13,4 C 2,0 km/h (1 Bft)
08.09.2004 02:00 13,0 C 81 % 1027 hPa 0,0 l/m 9,8 C 12,5 C 6,5 km/h (2 Bft)
08.09.2004 03:00 12,5 C 82 % 1027 hPa 0,0 l/m 9,4 C 12,3 C 4,4 km/h (1 Bft)
08.09.2004 04:00 12,0 C 82 % 1027 hPa 0,0 l/m 9,0 C 11,0 C 8,3 km/h (2 Bft)
08.09.2004 05:00 11,5 C 82 % 1027 hPa 0,0 l/m 8,5 C 11,3 C 3,5 km/h (1 Bft)
08.09.2004 06:00 11,2 C 84 % 1028 hPa 0,0 l/m 8,5 C 10,6 C 7,8 km/h (2 Bft)
08.09.2004 07:00 11,4 C 84 % 1028 hPa 0,0 l/m 8,8 C 9,8 C 9,6 km/h (2 Bft)
08.09.2004 08:00 12,6 C 82 % 1028 hPa 0,0 l/m 9,5 C 11,3 C 8,7 km/h (2 Bft)
08.09.2004 09:00 15,1 C 73 % 1029 hPa 0,0 l/m 10,3 C 13,3 C 10,1 km/h (2 Bft)
08.09.2004 10:00 18,4 C 60 % 1029 hPa 0,0 l/m 10,5 C 16,8 C 10,7 km/h (2 Bft)
08.09.2004 11:00 20,7 C 52 % 1029 hPa 0,0 l/m 10,5 C 19,3 C 11,8 km/h (2 Bft)
08.09.2004 12:00 22,5 C 48 % 1029 hPa 0,0 l/m 10,9 C 21,3 C 12,3 km/h (3 Bft)
08.09.2004 13:00 24,0 C 42 % 1028 hPa 0,0 l/m 10,1 C 22,7 C 14,0 km/h (3 Bft)
08.09.2004 14:00 24,8 C 39 % 1028 hPa 0,0 l/m 9,7 C 23,5 C 14,2 km/h (3 Bft)
08.09.2004 15:00 24,7 C 36 % 1028 hPa 0,0 l/m 8,8 C 23,1 C 15,3 km/h (3 Bft)
08.09.2004 16:00 23,9 C 37 % 1028 hPa 0,0 l/m 8,3 C 22,5 C 13,8 km/h (3 Bft)
08.09.2004 17:00 23,6 C 38 % 1027 hPa 0,0 l/m 8,3 C 22,3 C 13,1 km/h (3 Bft)
08.09.2004 18:00 23,1 C 38 % 1027 hPa 0,0 l/m 7,9 C 22,0 C 12,0 km/h (2 Bft)
08.09.2004 19:00 20,9 C 47 % 1027 hPa 0,0 l/m 9,0 C 20,8 C 2,2 km/h (1 Bft)
08.09.2004 20:00 18,0 C 58 % 1028 hPa 0,0 l/m 9,7 C 17,9 C 4,8 km/h (1 Bft)
08.09.2004 21:00 16,9 C 57 % 1028 hPa 0,0 l/m 8,1 C 15,5 C 10,7 km/h (2 Bft)
08.09.2004 22:00 15,9 C 52 % 1029 hPa 0,0 l/m 6,1 C 15,4 C 7,0 km/h (2 Bft)
08.09.2004 23:00 14,5 C 52 % 1029 hPa 0,0 l/m 4,7 C 14,0 C 5,8 km/h (2 Bft)
09.09.2004 00:00 13,6 C 55 % 1029 hPa 0,0 l/m 4,8 C 12,5 C 8,7 km/h (2 Bft)
09.09.2004 01:00 12,9 C 59 % 1029 hPa 0,0 l/m 5,1 C 12,1 C 8,4 km/h (2 Bft)
09.09.2004 02:00 12,0 C 64 % 1028 hPa 0,0 l/m 5,5 C 10,2 C 10,3 km/h (2 Bft)
09.09.2004 03:00 11,3 C 69 % 1028 hPa 0,0 l/m 5,8 C 9,8 C 9,2 km/h (2 Bft)
09.09.2004 04:00 10,8 C 73 % 1028 hPa 0,0 l/m 6,1 C 8,8 C 10,9 km/h (2 Bft)
09.09.2004 05:00 10,0 C 76 % 1028 hPa 0,0 l/m 6,0 C 8,7 C 9,1 km/h (2 Bft)
09.09.2004 06:00 9,3 C 80 % 1027 hPa 0,0 l/m 6,0 C 8,0 C 8,4 km/h (2 Bft)
09.09.2004 07:00 9,2 C 81 % 1028 hPa 0,0 l/m 6,1 C 8,3 C 7,9 km/h (2 Bft)
09.09.2004 08:00 10,7 C 75 % 1028 hPa 0,0 l/m 6,4 C 8,2 C 12,2 km/h (2 Bft)
09.09.2004 09:00 13,4 C 65 % 1028 hPa 0,0 l/m 6,8 C 10,0 C 15,1 km/h (3 Bft)
09.09.2004 10:00 17,2 C 51 % 1028 hPa 0,0 l/m 6,9 C 14,1 C 15,8 km/h (3 Bft)
09.09.2004 11:00 19,6 C 43 % 1028 hPa 0,0 l/m 6,5 C 16,3 C 19,8 km/h (4 Bft)
09.09.2004 12:00 20,8 C 40 % 1028 hPa 0,0 l/m 6,6 C 17,6 C 20,9 km/h (4 Bft)
09.09.2004 13:00 21,9 C 38 % 1028 hPa 0,0 l/m 7,0 C 19,2 C 19,8 km/h (3 Bft)
09.09.2004 14:00 23,0 C 35 % 1027 hPa 0,0 l/m 6,7 C 20,6 C 19,3 km/h (3 Bft)
09.09.2004 15:00 23,2 C 33 % 1027 hPa 0,0 l/m 6,1 C 20,8 C 18,7 km/h (3 Bft)
09.09.2004 16:00 22,2 C 33 % 1026 hPa 0,0 l/m 5,0 C 19,4 C 21,0 km/h (4 Bft)
09.09.2004 17:00 21,9 C 32 % 1026 hPa 0,0 l/m 4,5 C 19,4 C 17,7 km/h (3 Bft)
09.09.2004 18:00 21,3 C 33 % 1025 hPa 0,0 l/m 4,3 C 19,4 C 14,6 km/h (3 Bft)
09.09.2004 19:00 19,1 C 36 % 1025 hPa 0,0 l/m 3,7 C 17,5 C 12,2 km/h (2 Bft)
09.09.2004 20:00 17,1 C 40 % 1026 hPa 0,0 l/m 3,5 C 15,7 C 11,2 km/h (2 Bft)
09.09.2004 21:00 15,5 C 43 % 1026 hPa 0,0 l/m 3,1 C 14,6 C 8,8 km/h (2 Bft)
09.09.2004 22:00 13,5 C 50 % 1025 hPa 0,0 l/m 3,2 C 12,7 C 6,4 km/h (2 Bft)
09.09.2004 23:00 12,3 C 53 % 1025 hPa 0,0 l/m 2,9 C 11,7 C 6,0 km/h (2 Bft)
10.09.2004 00:00 11,4 C 57 % 1025 hPa 0,0 l/m 3,2 C 10,5 C 8,1 km/h (2 Bft)
10.09.2004 01:00 10,7 C 60 % 1024 hPa 0,0 l/m 3,2 C 10,2 C 6,3 km/h (2 Bft)
10.09.2004 02:00 10,1 C 61 % 1024 hPa 0,0 l/m 3,0 C 9,6 C 4,9 km/h (1 Bft)
10.09.2004 03:00 9,4 C 62 % 1024 hPa 0,0 l/m 2,5 C 8,5 C 8,1 km/h (2 Bft)
10.09.2004 04:00 8,8 C 64 % 1024 hPa 0,0 l/m 2,3 C 7,6 C 7,8 km/h (2 Bft)
10.09.2004 05:00 8,1 C 67 % 1024 hPa 0,0 l/m 2,3 C 7,9 C 4,9 km/h (1 Bft)
10.09.2004 06:00 7,5 C 70 % 1024 hPa 0,0 l/m 2,5 C 7,2 C 3,9 km/h (1 Bft)
10.09.2004 07:00 7,3 C 73 % 1024 hPa 0,0 l/m 2,9 C 7,3 C 0,3 km/h (0 Bft)
10.09.2004 08:00 8,7 C 72 % 1024 hPa 0,0 l/m 3,9 C 8,5 C 3,6 km/h (1 Bft)
10.09.2004 09:00 11,3 C 65 % 1024 hPa 0,0 l/m 5,0 C 11,0 C 3,4 km/h (1 Bft)
10.09.2004 10:00 15,2 C 56 % 1024 hPa 0,0 l/m 6,5 C 15,2 C 1,1 km/h (0 Bft)
10.09.2004 11:00 19,0 C 50 % 1024 hPa 0,0 l/m 8,4 C 18,7 C 4,8 km/h (1 Bft)
10.09.2004 12:00 21,5 C 48 % 1024 hPa 0,0 l/m 10,0 C 21,2 C 6,0 km/h (2 Bft)
10.09.2004 13:00 23,5 C 46 % 1023 hPa 0,0 l/m 11,1 C 23,1 C 7,6 km/h (2 Bft)
10.09.2004 14:00 25,5 C 42 % 1022 hPa 0,0 l/m 11,6 C 25,3 C 5,1 km/h (1 Bft)
10.09.2004 15:00 26,7 C 39 % 1022 hPa 0,0 l/m 11,5 C 26,5 C 5,9 km/h (2 Bft)
10.09.2004 16:00 25,9 C 37 % 1021 hPa 0,0 l/m 10,0 C 25,8 C 3,4 km/h (1 Bft)
10.09.2004 17:00 25,4 C 42 % 1020 hPa 0,0 l/m 11,4 C 25,3 C 1,6 km/h (1 Bft)
10.09.2004 18:00 23,4 C 52 % 1020 hPa 0,0 l/m 13,0 C 23,4 C 1,0 km/h (0 Bft)
10.09.2004 19:00 21,6 C 59 % 1020 hPa 0,0 l/m 13,2 C 21,5 C 4,2 km/h (1 Bft)
10.09.2004 20:00 19,5 C 63 % 1020 hPa 0,0 l/m 12,2 C 19,5 C 1,7 km/h (1 Bft)
10.09.2004 21:00 17,5 C 70 % 1021 hPa 0,0 l/m 12,0 C 17,5 C 0,0 km/h (0 Bft)
10.09.2004 22:00 16,3 C 74 % 1021 hPa 0,0 l/m 11,6 C 16,3 C 0,0 km/h (0 Bft)
10.09.2004 23:00 15,4 C 80 % 1021 hPa 0,0 l/m 11,9 C 15,4 C 0,0 km/h (0 Bft)
11.09.2004 00:00 15,2 C 84 % 1021 hPa 0,0 l/m 12,6 C 15,2 C 0,0 km/h (0 Bft)
11.09.2004 01:00 15,5 C 88 % 1021 hPa 0,0 l/m 13,4 C 15,5 C 0,0 km/h (0 Bft)
11.09.2004 02:00 15,3 C 89 % 1021 hPa 0,0 l/m 13,5 C 15,3 C 0,0 km/h (0 Bft)
11.09.2004 03:00 15,1 C 90 % 1021 hPa 0,0 l/m 13,5 C 15,1 C 0,0 km/h (0 Bft)
11.09.2004 04:00 15,0 C 92 % 1021 hPa 0,0 l/m 13,8 C 15,0 C 2,0 km/h (1 Bft)
11.09.2004 05:00 15,3 C 94 % 1021 hPa 0,0 l/m 14,4 C 15,3 C 1,1 km/h (1 Bft)
11.09.2004 06:00 16,2 C 93 % 1021 hPa 0,0 l/m 15,0 C 15,5 C 7,4 km/h (2 Bft)
11.09.2004 07:00 15,8 C 93 % 1021 hPa 0,0 l/m 14,7 C 15,8 C 0,4 km/h (0 Bft)
11.09.2004 08:00 16,4 C 92 % 1022 hPa 0,0 l/m 15,1 C 14,3 C 11,2 km/h (2 Bft)
11.09.2004 09:00 17,4 C 86 % 1022 hPa 0,0 l/m 15,0 C 14,6 C 14,1 km/h (3 Bft)
11.09.2004 10:00 19,6 C 73 % 1022 hPa 0,0 l/m 14,7 C 17,3 C 14,9 km/h (3 Bft)
11.09.2004 11:00 22,2 C 53 % 1022 hPa 0,0 l/m 12,1 C 20,2 C 16,4 km/h (3 Bft)
11.09.2004 12:00 23,2 C 50 % 1022 hPa 0,0 l/m 12,3 C 21,2 C 17,3 km/h (3 Bft)
11.09.2004 13:00 24,2 C 48 % 1022 hPa 0,0 l/m 12,3 C 22,3 C 18,2 km/h (3 Bft)
11.09.2004 14:00 24,9 C 45 % 1021 hPa 0,0 l/m 12,0 C 23,2 C 17,9 km/h (3 Bft)
11.09.2004 15:00 25,1 C 45 % 1021 hPa 0,0 l/m 12,3 C 24,1 C 13,6 km/h (3 Bft)
11.09.2004 16:00 24,8 C 45 % 1020 hPa 0,0 l/m 12,0 C 23,8 C 12,2 km/h (2 Bft)
11.09.2004 17:00 24,4 C 46 % 1020 hPa 0,0 l/m 12,1 C 23,6 C 10,9 km/h (2 Bft)
11.09.2004 18:00 23,4 C 52 % 1019 hPa 0,0 l/m 12,9 C 23,0 C 7,7 km/h (2 Bft)
11.09.2004 19:00 21,5 C 59 % 1019 hPa 0,0 l/m 13,2 C 21,5 C 0,6 km/h (0 Bft)
11.09.2004 20:00 19,5 C 66 % 1019 hPa 0,0 l/m 12,9 C 19,5 C 0,0 km/h (0 Bft)
11.09.2004 21:00 18,1 C 72 % 1019 hPa 0,0 l/m 13,0 C 18,1 C 0,0 km/h (0 Bft)
11.09.2004 22:00 17,5 C 78 % 1019 hPa 0,0 l/m 13,7 C 17,5 C 1,5 km/h (1 Bft)
11.09.2004 23:00 17,2 C 82 % 1019 hPa 0,0 l/m 14,1 C 17,2 C 0,0 km/h (0 Bft)
12.09.2004 00:00 16,8 C 84 % 1019 hPa 0,0 l/m 14,1 C 16,8 C 0,0 km/h (0 Bft)
12.09.2004 01:00 16,9 C 82 % 1018 hPa 0,0 l/m 13,8 C 16,3 C 6,9 km/h (2 Bft)
12.09.2004 02:00 17,5 C 78 % 1019 hPa 0,0 l/m 13,6 C 16,4 C 10,1 km/h (2 Bft)
12.09.2004 03:00 17,2 C 77 % 1018 hPa 0,0 l/m 13,2 C 15,9 C 11,3 km/h (2 Bft)
12.09.2004 04:00 16,8 C 82 % 1018 hPa 0,0 l/m 13,7 C 14,9 C 11,9 km/h (2 Bft)
12.09.2004 05:00 15,9 C 92 % 1019 hPa 1,0 l/m 14,5 C 13,1 C 15,8 km/h (3 Bft)
12.09.2004 06:00 15,3 C 96 % 1019 hPa 2,0 l/m 14,7 C 12,8 C 13,7 km/h (3 Bft)
12.09.2004 07:00 15,1 C 98 % 1019 hPa 2,0 l/m 14,7 C 13,0 C 11,4 km/h (2 Bft)
12.09.2004 08:00 15,1 C 98 % 1019 hPa 0,0 l/m 14,8 C 12,9 C 12,4 km/h (3 Bft)
12.09.2004 09:00 15,2 C 97 % 1019 hPa 0,0 l/m 14,8 C 12,9 C 12,2 km/h (3 Bft)
12.09.2004 10:00 15,4 C 95 % 1019 hPa 0,0 l/m 14,6 C 13,3 C 12,8 km/h (3 Bft)
12.09.2004 11:00 15,7 C 94 % 1020 hPa 0,0 l/m 14,7 C 13,8 C 12,4 km/h (3 Bft)
12.09.2004 12:00 17,0 C 90 % 1020 hPa 0,0 l/m 15,2 C 14,8 C 13,7 km/h (3 Bft)
12.09.2004 13:00 18,8 C 71 % 1019 hPa 0,0 l/m 13,4 C 16,0 C 16,4 km/h (3 Bft)
12.09.2004 14:00 19,2 C 59 % 1019 hPa 0,0 l/m 10,9 C 16,0 C 18,7 km/h (3 Bft)
12.09.2004 15:00 19,1 C 52 % 1019 hPa 0,0 l/m 9,0 C 16,5 C 15,9 km/h (3 Bft)
12.09.2004 16:00 19,2 C 47 % 1019 hPa 0,0 l/m 7,5 C 16,8 C 14,9 km/h (3 Bft)
12.09.2004 17:00 19,3 C 44 % 1019 hPa 0,0 l/m 6,7 C 17,2 C 13,9 km/h (3 Bft)
12.09.2004 18:00 18,7 C 44 % 1019 hPa 0,0 l/m 6,1 C 17,4 C 9,8 km/h (2 Bft)
12.09.2004 19:00 16,7 C 49 % 1020 hPa 0,0 l/m 5,9 C 16,2 C 5,5 km/h (1 Bft)
12.09.2004 20:00 15,2 C 60 % 1020 hPa 0,0 l/m 7,4 C 15,2 C 3,5 km/h (1 Bft)
12.09.2004 21:00 13,7 C 72 % 1021 hPa 0,0 l/m 8,6 C 13,6 C 3,4 km/h (1 Bft)
12.09.2004 22:00 13,6 C 77 % 1021 hPa 0,0 l/m 9,7 C 13,2 C 7,0 km/h (2 Bft)
12.09.2004 23:00 13,3 C 81 % 1020 hPa 0,0 l/m 10,1 C 13,2 C 5,6 km/h (1 Bft)
Min-Datum _ 10.09.04 09.09.04 12.09.04 - 10.09.04 10.09.04 06.09.04
_ Min-Zeit 07:11 15:37 04:00 - 04:04 06:19 00:00
Minimum _ 7,1 C 32 % 1018 hPa - 2,1 C 5,1 C 0,0 km/h (0 Bft)
Max-Datum _ 10.09.04 12.09.04 08.09.04 12.09.04 12.09.04 10.09.04 09.09.04
_ Max-Zeit 15:39 07:04 09:26 05:00 12:49 15:34 11:32
Maximum _ 26,9 C 98 % 1029 hPa 2,0 l/m 15,7 C 26,8 C 35,8 km/h
O-NO (5 Bft)
Durchschnitt _ 17,2 C 64 % 1024 hPa #5,0 l/m 9,7 C 16,2 C 8,6 km/h (2 Bft)

Durchschnitt Minimum Temp.16,4 C
Durchschnitt Maximum Temp.18,1 C